createdAt,value
2022-10-03T00:00:11.741Z,17.79
2022-10-03T00:03:29.291Z,17.75
2022-10-03T00:06:27.639Z,17.74
2022-10-03T00:09:27.186Z,17.71
2022-10-03T00:12:19.549Z,17.67
2022-10-03T00:15:12.001Z,17.65
2022-10-03T00:17:59.469Z,17.62
2022-10-03T00:21:08.332Z,17.58
2022-10-03T00:23:55.492Z,17.56
2022-10-03T00:27:00.358Z,17.55
2022-10-03T00:29:39.533Z,17.53
2022-10-03T00:32:53.513Z,17.53
2022-10-03T00:36:03.094Z,17.53
2022-10-03T00:39:09.582Z,17.49
2022-10-03T00:42:07.305Z,17.47
2022-10-03T00:45:12.061Z,17.44
2022-10-03T00:48:32.541Z,17.42
2022-10-03T00:51:09.569Z,17.35
2022-10-03T00:54:17.371Z,17.28
2022-10-03T00:56:58.661Z,17.19
2022-10-03T01:00:06.921Z,17.07
2022-10-03T01:02:40.351Z,16.91
2022-10-03T01:05:46.951Z,16.86
2022-10-03T01:08:45.199Z,16.76
2022-10-03T01:11:43.188Z,16.69
2022-10-03T01:15:07.138Z,16.66
2022-10-03T01:18:21.693Z,16.66
2022-10-03T01:21:07.262Z,16.62
2022-10-03T01:23:53.019Z,16.58
2022-10-03T01:26:57.330Z,16.51
2022-10-03T01:29:52.243Z,16.47
2022-10-03T01:32:47.514Z,16.43
2022-10-03T01:35:24.317Z,16.42
2022-10-03T01:38:22.362Z,16.44
2022-10-03T01:41:35.991Z,16.47
2022-10-03T01:44:12.920Z,16.44
2022-10-03T01:47:08.787Z,16.41
2022-10-03T01:50:00.638Z,16.38
2022-10-03T01:53:06.873Z,16.29
2022-10-03T01:55:56.866Z,16.25
2022-10-03T01:59:07.780Z,16.25
2022-10-03T02:01:51.714Z,16.24
2022-10-03T02:04:34.273Z,16.24
2022-10-03T02:07:26.449Z,16.18
2022-10-03T02:10:24.695Z,16.17
2022-10-03T02:13:17.370Z,16.06
2022-10-03T02:16:05.703Z,16.01
2022-10-03T02:18:58.679Z,15.94
2022-10-03T02:21:32.750Z,15.85
2022-10-03T02:24:15.435Z,15.75
2022-10-03T02:27:16.668Z,15.64
2022-10-03T02:30:37.234Z,15.57
2022-10-03T02:33:16.002Z,15.53
2022-10-03T02:36:32.327Z,15.54
2022-10-03T02:39:36.801Z,15.53
2022-10-03T02:42:59.924Z,15.50
2022-10-03T02:45:36.615Z,15.49
2022-10-03T02:48:31.838Z,15.50
2022-10-03T02:51:37.253Z,15.54
2022-10-03T02:54:52.380Z,15.59
2022-10-03T02:58:14.444Z,15.62
2022-10-03T03:01:18.744Z,15.65
2022-10-03T03:04:12.798Z,15.62
2022-10-03T03:07:16.753Z,15.58
2022-10-03T03:10:25.234Z,15.57
2022-10-03T03:13:09.757Z,15.53
2022-10-03T03:16:14.996Z,15.53
2022-10-03T03:19:25.625Z,15.50
2022-10-03T03:22:32.310Z,15.51
2022-10-03T03:25:38.542Z,15.47
2022-10-03T03:28:26.635Z,15.48
2022-10-03T03:31:13.341Z,15.45
2022-10-03T03:34:34.902Z,15.42
2022-10-03T03:37:36.594Z,15.40
2022-10-03T03:40:35.647Z,15.47
2022-10-03T03:43:05.976Z,15.49
2022-10-03T03:46:04.449Z,15.50
2022-10-03T03:49:16.558Z,15.52
2022-10-03T03:52:31.456Z,15.52
2022-10-03T03:55:06.334Z,15.47
2022-10-03T03:57:48.433Z,15.49
2022-10-03T04:00:38.815Z,15.53
2022-10-03T04:03:54.288Z,15.57
2022-10-03T04:06:40.235Z,15.58
2022-10-03T04:09:43.675Z,15.64
2022-10-03T04:12:52.538Z,15.68
2022-10-03T04:15:47.399Z,15.71
2022-10-03T04:19:08.437Z,15.71
2022-10-03T04:22:13.306Z,15.74
2022-10-03T04:25:18.112Z,15.64
2022-10-03T04:28:34.408Z,15.49
2022-10-03T04:31:30.723Z,15.44
2022-10-03T04:34:42.682Z,15.20
2022-10-03T04:37:19.353Z,15.08
2022-10-03T04:40:22.086Z,15.08
2022-10-03T04:43:10.754Z,15.01
2022-10-03T04:46:06.235Z,14.92
2022-10-03T04:48:52.139Z,14.99
2022-10-03T04:52:09.109Z,14.91
2022-10-03T04:55:24.708Z,14.75
2022-10-03T04:58:16.682Z,14.70
2022-10-03T05:01:18.768Z,14.74
2022-10-03T05:04:34.961Z,14.77
2022-10-03T05:07:16.342Z,14.83
2022-10-03T05:10:15.401Z,14.79
2022-10-03T05:12:54.100Z,14.70
2022-10-03T05:15:45.109Z,14.66
2022-10-03T05:18:49.270Z,14.77
2022-10-03T05:21:31.986Z,14.85
2022-10-03T05:24:22.646Z,14.67
2022-10-03T05:27:20.973Z,14.59
2022-10-03T05:30:24.480Z,14.69
2022-10-03T05:33:16.967Z,14.73
2022-10-03T05:36:24.422Z,14.66
2022-10-03T05:39:53.785Z,14.61
2022-10-03T05:42:55.512Z,14.55
2022-10-03T05:45:49.045Z,14.46
2022-10-03T05:48:56.387Z,14.49
2022-10-03T05:51:40.317Z,14.51
2022-10-03T05:54:50.561Z,14.57
2022-10-03T05:57:41.430Z,14.52
2022-10-03T06:00:22.755Z,14.46
2022-10-03T06:03:23.381Z,14.28
2022-10-03T06:06:20.873Z,14.36
2022-10-03T06:09:24.409Z,14.37
2022-10-03T06:12:10.074Z,14.38
2022-10-03T06:14:58.037Z,14.50
2022-10-03T06:18:08.454Z,14.63
2022-10-03T06:21:32.468Z,14.54
2022-10-03T06:24:14.644Z,14.57
2022-10-03T06:26:59.502Z,14.57
2022-10-03T06:30:11.958Z,14.57
2022-10-03T06:33:10.924Z,14.59
2022-10-03T06:36:21.266Z,14.61
2022-10-03T06:39:28.397Z,14.63
2022-10-03T06:42:41.585Z,14.69
2022-10-03T06:46:09.195Z,14.80
2022-10-03T06:49:32.690Z,14.94
2022-10-03T06:52:14.793Z,15.08
2022-10-03T06:55:04.555Z,15.21
2022-10-03T06:58:17.988Z,15.21
2022-10-03T07:01:05.370Z,15.10
2022-10-03T07:04:29.473Z,15.12
2022-10-03T07:07:52.692Z,15.22
2022-10-03T07:10:37.886Z,15.18
2022-10-03T07:14:09.121Z,15.26
2022-10-03T07:17:11.806Z,15.43
2022-10-03T07:20:28.735Z,15.44
2022-10-03T07:23:39.588Z,15.58
2022-10-03T07:26:45.071Z,15.51
2022-10-03T07:29:28.338Z,15.63
2022-10-03T07:32:10.710Z,15.74
2022-10-03T07:35:01.097Z,15.83
2022-10-03T07:38:02.414Z,15.94
2022-10-03T07:41:11.976Z,15.78
2022-10-03T07:44:07.790Z,15.84
2022-10-03T07:47:27.609Z,15.91
2022-10-03T07:50:25.946Z,15.94
2022-10-03T07:54:01.840Z,16.00
2022-10-03T07:56:57.425Z,16.02
2022-10-03T08:00:15.685Z,16.11
2022-10-03T08:03:41.314Z,16.21
2022-10-03T08:06:43.636Z,16.24
2022-10-03T08:09:50.575Z,16.32
2022-10-03T08:12:40.456Z,16.37
2022-10-03T08:16:14.292Z,16.36
2022-10-03T08:19:27.423Z,16.49
2022-10-03T08:22:16.074Z,16.64
2022-10-03T08:25:29.765Z,16.78
2022-10-03T08:28:18.252Z,16.87
2022-10-03T08:31:19.164Z,16.83
2022-10-03T08:34:44.070Z,16.91
2022-10-03T08:37:35.666Z,17.02
2022-10-03T08:40:21.320Z,17.02
2022-10-03T08:43:23.194Z,17.02
2022-10-03T08:46:15.287Z,17.12
2022-10-03T08:49:06.909Z,17.12
2022-10-03T08:51:56.617Z,17.11
2022-10-03T08:54:42.767Z,17.06
2022-10-03T08:58:03.111Z,16.99
2022-10-03T09:01:13.340Z,17.08
2022-10-03T09:03:58.700Z,17.00
2022-10-03T09:14:42.955Z,17.22
2022-10-03T09:18:05.303Z,17.35
2022-10-03T09:21:13.332Z,17.43
2022-10-03T09:23:59.478Z,17.50
2022-10-03T09:27:02.709Z,17.61
2022-10-03T09:30:15.986Z,17.63
2022-10-03T09:33:08.014Z,17.64
2022-10-03T09:35:50.432Z,17.72
2022-10-03T09:38:51.259Z,17.74
2022-10-03T09:41:49.387Z,17.82
2022-10-03T09:44:19.714Z,17.85
2022-10-03T09:47:27.916Z,17.92
2022-10-03T09:50:21.214Z,17.84
2022-10-03T09:53:30.122Z,18.04
2022-10-03T09:56:34.702Z,18.16
2022-10-03T09:59:12.155Z,18.24
2022-10-03T10:01:54.090Z,18.29
2022-10-03T10:04:56.157Z,18.19
2022-10-03T10:07:43.286Z,18.21
2022-10-03T10:10:38.900Z,18.26
2022-10-03T10:13:12.200Z,18.23
2022-10-03T10:15:48.652Z,18.22
2022-10-03T10:18:50.621Z,18.09
2022-10-03T10:21:45.541Z,18.09
2022-10-03T10:24:50.815Z,18.07
2022-10-03T10:27:42.326Z,18.07
2022-10-03T10:31:03.349Z,18.12
2022-10-03T10:34:22.768Z,18.27
2022-10-03T10:36:58.184Z,18.37
2022-10-03T10:39:58.029Z,18.32
2022-10-03T10:43:15.838Z,18.27
2022-10-03T10:46:31.070Z,18.36
2022-10-03T10:49:57.168Z,18.39
2022-10-03T10:53:00.276Z,18.58
2022-10-03T10:55:59.929Z,18.77
2022-10-03T10:58:53.302Z,18.91
2022-10-03T11:02:15.216Z,18.99
2022-10-03T11:05:39.615Z,18.96
2022-10-03T11:09:12.754Z,18.74
2022-10-03T11:12:23.943Z,18.81
2022-10-03T11:15:38.129Z,18.85
2022-10-03T11:18:32.681Z,18.90
2022-10-03T11:21:00.196Z,18.95
2022-10-03T11:24:09.677Z,18.85
2022-10-03T11:27:35.899Z,18.74
2022-10-03T11:30:42.933Z,18.65
2022-10-03T11:34:04.429Z,18.77
2022-10-03T11:37:06.052Z,19.03
2022-10-03T11:39:39.460Z,19.19
2022-10-03T11:43:34.468Z,19.51
2022-10-03T11:46:57.190Z,19.59
2022-10-03T11:49:58.010Z,19.57
2022-10-03T11:53:03.501Z,19.21
2022-10-03T11:55:42.190Z,19.11
2022-10-03T11:58:34.110Z,19.13
2022-10-03T12:01:04.607Z,19.23
2022-10-03T12:03:44.335Z,19.35
2022-10-03T12:06:58.593Z,19.33
2022-10-03T12:10:04.679Z,19.46
2022-10-03T12:12:46.128Z,19.46
2022-10-03T12:15:38.330Z,19.42
2022-10-03T12:18:18.139Z,19.36
2022-10-03T12:21:07.594Z,19.25
2022-10-03T12:23:35.642Z,19.32
2022-10-03T12:26:04.926Z,19.00
2022-10-03T12:28:44.347Z,18.94
2022-10-03T12:31:35.875Z,18.76
2022-10-03T12:34:12.572Z,18.53
2022-10-03T12:36:52.057Z,18.46
2022-10-03T12:39:44.884Z,18.36
2022-10-03T12:43:09.552Z,18.47
2022-10-03T12:45:59.129Z,18.62
2022-10-03T12:48:55.666Z,18.72
2022-10-03T12:51:42.440Z,18.79
2022-10-03T12:54:35.018Z,18.60
2022-10-03T12:57:47.718Z,18.48
2022-10-03T13:00:47.486Z,18.53
2022-10-03T13:03:31.043Z,18.68
2022-10-03T13:07:01.611Z,18.67
2022-10-03T13:09:33.021Z,18.54
2022-10-03T13:12:10.626Z,18.46
2022-10-03T13:14:58.515Z,18.41
2022-10-03T13:17:47.857Z,18.36
2022-10-03T13:20:35.451Z,18.25
2022-10-03T13:23:28.230Z,18.20
2022-10-03T13:26:15.918Z,18.17
2022-10-03T13:28:58.326Z,18.14
2022-10-03T13:31:33.142Z,18.15
2022-10-03T13:34:11.902Z,18.11
2022-10-03T13:37:09.863Z,18.06
2022-10-03T13:39:56.038Z,17.98
2022-10-03T13:42:53.567Z,17.92
2022-10-03T13:45:27.414Z,17.96
2022-10-03T13:48:17.299Z,18.06
2022-10-03T13:50:52.366Z,18.10
2022-10-03T13:54:00.045Z,18.16
2022-10-03T13:57:02.303Z,18.20
2022-10-03T13:59:47.364Z,18.28
2022-10-03T14:02:42.202Z,18.49
2022-10-03T14:06:02.414Z,18.98
2022-10-03T14:08:40.263Z,19.58
2022-10-03T14:11:50.196Z,20.21
2022-10-03T14:15:06.858Z,20.95
2022-10-03T14:17:56.929Z,21.07
2022-10-03T14:20:53.371Z,21.00
2022-10-03T14:23:32.875Z,20.82
2022-10-03T14:26:32.824Z,20.67
2022-10-03T14:29:33.591Z,20.35
2022-10-03T14:32:46.935Z,19.74
2022-10-03T14:35:38.274Z,19.35
2022-10-03T14:38:58.771Z,19.00
2022-10-03T14:41:49.969Z,18.67
2022-10-03T14:44:21.321Z,18.48
2022-10-03T14:47:01.792Z,18.33
2022-10-03T14:49:54.839Z,18.26
2022-10-03T14:52:46.077Z,18.13
2022-10-03T14:55:29.018Z,18.11
2022-10-03T14:58:13.037Z,18.07
2022-10-03T15:00:48.824Z,17.94
2022-10-03T15:03:16.252Z,17.88
2022-10-03T15:06:21.947Z,17.84
2022-10-03T15:08:55.025Z,17.81
2022-10-03T15:11:33.370Z,17.77
2022-10-03T15:14:09.085Z,17.76
2022-10-03T15:16:56.308Z,17.74
2022-10-03T15:19:47.875Z,17.70
2022-10-03T15:22:36.936Z,17.65
2022-10-03T15:25:40.051Z,17.85
2022-10-03T15:28:20.164Z,18.09
2022-10-03T15:30:49.790Z,18.10
2022-10-03T15:33:32.448Z,18.13
2022-10-03T15:36:26.899Z,18.21
2022-10-03T15:39:03.067Z,18.19
2022-10-03T15:41:51.395Z,18.12
2022-10-03T15:44:45.551Z,17.99
2022-10-03T15:47:19.945Z,17.75
2022-10-03T15:50:07.270Z,17.60
2022-10-03T15:52:40.256Z,17.46
2022-10-03T15:55:19.843Z,17.41
2022-10-03T15:57:51.025Z,17.30
2022-10-03T16:00:32.142Z,17.21
2022-10-03T16:03:23.077Z,17.17
2022-10-03T16:06:36.017Z,17.06
2022-10-03T16:09:22.060Z,17.00
2022-10-03T16:12:16.733Z,16.97
2022-10-03T16:14:58.001Z,16.86
2022-10-03T16:17:56.629Z,16.79
2022-10-03T16:20:45.707Z,16.68
2022-10-03T16:23:29.229Z,16.58
2022-10-03T16:26:30.933Z,16.51
2022-10-03T16:29:15.006Z,16.52
2022-10-03T16:32:03.587Z,16.33
2022-10-03T16:34:34.350Z,16.31
2022-10-03T16:37:06.962Z,16.25
2022-10-03T16:39:38.638Z,16.22
2022-10-03T16:42:25.942Z,16.18
2022-10-03T16:44:58.156Z,16.18
2022-10-03T16:47:36.590Z,16.15
2022-10-03T16:50:24.931Z,16.16
2022-10-03T16:52:58.642Z,16.11
2022-10-03T16:55:36.357Z,16.07
2022-10-03T16:58:15.207Z,16.12
2022-10-03T17:01:26.252Z,16.11
2022-10-03T17:04:29.150Z,16.07
2022-10-03T17:07:02.220Z,16.04
2022-10-03T17:09:48.972Z,16.05
2022-10-03T17:12:30.276Z,16.00
2022-10-03T17:15:16.277Z,15.94
2022-10-03T17:18:25.497Z,15.96
2022-10-03T17:21:08.434Z,16.01
2022-10-03T17:24:00.519Z,15.98
2022-10-03T17:26:42.692Z,16.01
2022-10-03T17:29:33.539Z,15.96
2022-10-03T17:32:09.543Z,15.98
2022-10-03T17:34:48.034Z,15.93
2022-10-03T17:37:42.114Z,15.94
2022-10-03T17:40:23.254Z,15.94
2022-10-03T17:43:14.648Z,15.90
2022-10-03T17:45:50.468Z,15.87
2022-10-03T17:48:38.614Z,15.87
2022-10-03T17:51:36.952Z,15.89
2022-10-03T17:54:26.424Z,15.91
2022-10-03T17:57:13.965Z,15.91
2022-10-03T18:00:00.540Z,15.91
2022-10-03T18:02:56.811Z,15.92
2022-10-03T18:05:32.970Z,15.91
2022-10-03T18:08:14.557Z,15.90
2022-10-03T18:10:49.551Z,15.83
2022-10-03T18:13:43.948Z,15.83
2022-10-03T18:16:20.482Z,15.80
2022-10-03T18:19:39.192Z,15.81
2022-10-03T18:22:40.958Z,15.83
2022-10-03T18:29:31.539Z,15.75
2022-10-03T18:32:22.212Z,15.76
2022-10-03T18:35:21.080Z,15.76
2022-10-03T18:38:05.259Z,15.75
2022-10-03T18:41:01.474Z,15.78
2022-10-03T18:43:31.304Z,15.76
2022-10-03T18:46:15.272Z,15.81
2022-10-03T18:49:28.347Z,15.79
2022-10-03T18:52:00.564Z,15.66
2022-10-03T18:54:59.223Z,15.65
2022-10-03T18:57:57.472Z,15.69
2022-10-03T19:00:31.713Z,15.60
2022-10-03T19:03:13.516Z,15.55
2022-10-03T19:06:18.561Z,15.53
2022-10-03T19:09:02.312Z,15.50
2022-10-03T19:11:35.371Z,15.49
2022-10-03T19:14:16.346Z,15.56
2022-10-03T19:17:05.192Z,15.47
2022-10-03T19:20:11.404Z,15.48
2022-10-03T19:23:08.237Z,15.51
2022-10-03T19:25:38.718Z,15.58
2022-10-03T19:28:41.332Z,15.55
2022-10-03T19:31:12.227Z,15.51
2022-10-03T19:33:49.447Z,15.50
2022-10-03T19:36:28.133Z,15.45
2022-10-03T19:38:59.189Z,15.44
2022-10-03T19:41:46.872Z,15.41
2022-10-03T19:44:25.776Z,15.42
2022-10-03T19:47:16.116Z,15.41
2022-10-03T19:50:21.949Z,15.31
2022-10-03T19:52:50.166Z,15.24
2022-10-03T19:55:40.960Z,15.34
2022-10-03T19:58:23.814Z,15.36
2022-10-03T20:00:59.487Z,15.44
2022-10-03T20:03:38.526Z,15.48
2022-10-03T20:06:18.686Z,15.50
2022-10-03T20:08:59.421Z,15.41
2022-10-03T20:11:51.626Z,15.41
2022-10-03T20:14:29.100Z,15.39
2022-10-03T20:17:22.782Z,15.46
2022-10-03T20:20:04.468Z,15.43
2022-10-03T20:22:36.542Z,15.51
2022-10-03T20:25:08.497Z,15.45
2022-10-03T20:27:49.744Z,15.33
2022-10-03T20:30:35.951Z,15.33
2022-10-03T20:33:06.272Z,15.40
2022-10-03T20:36:19.156Z,15.35
2022-10-03T20:39:04.805Z,15.33
2022-10-03T20:42:16.090Z,15.34
2022-10-03T20:45:03.230Z,15.42
2022-10-03T20:48:10.359Z,15.36
2022-10-03T20:50:46.398Z,15.26
2022-10-03T20:53:23.243Z,15.27
2022-10-03T20:56:08.890Z,15.32
2022-10-03T20:59:05.732Z,15.33
2022-10-03T21:01:37.556Z,15.33
2022-10-03T21:04:07.902Z,15.26
2022-10-03T21:07:23.492Z,15.22
2022-10-03T21:10:28.751Z,15.21
2022-10-03T21:13:34.486Z,15.20
2022-10-03T21:16:16.383Z,15.09
2022-10-03T21:18:55.630Z,15.05
2022-10-03T21:21:42.160Z,15.08
2022-10-03T21:24:27.573Z,15.09
2022-10-03T21:27:22.591Z,15.12
2022-10-03T21:30:24.354Z,15.12
2022-10-03T21:33:11.495Z,15.07
2022-10-03T21:35:48.746Z,15.10
2022-10-03T21:38:47.052Z,15.00
2022-10-03T21:41:37.991Z,14.91
2022-10-03T21:44:16.998Z,14.91
2022-10-03T21:47:38.779Z,14.79
2022-10-03T21:50:27.457Z,14.66
2022-10-03T21:53:31.908Z,14.59
2022-10-03T21:56:37.537Z,14.58
2022-10-03T21:59:40.010Z,14.56
2022-10-03T22:03:07.262Z,14.48
2022-10-03T22:06:04.067Z,14.54
2022-10-03T22:08:37.309Z,14.43
2022-10-03T22:11:29.059Z,14.33
2022-10-03T22:14:47.221Z,14.31
2022-10-03T22:17:35.183Z,14.25
2022-10-03T22:20:23.417Z,14.40
2022-10-03T22:23:21.589Z,14.36
2022-10-03T22:26:06.869Z,14.38
2022-10-03T22:29:00.406Z,14.31
2022-10-03T22:31:51.399Z,14.33
2022-10-03T22:34:43.615Z,14.37
2022-10-03T22:37:14.769Z,14.41
2022-10-03T22:39:43.259Z,14.46
2022-10-03T22:42:15.197Z,14.44
2022-10-03T22:44:48.050Z,14.40
2022-10-03T22:47:24.824Z,14.36
2022-10-03T22:49:59.057Z,14.35
2022-10-03T22:52:37.665Z,14.24
2022-10-03T22:55:09.177Z,14.18
2022-10-03T22:57:39.319Z,14.14
2022-10-03T23:00:11.821Z,14.08
2022-10-03T23:02:59.301Z,14.01
2022-10-03T23:05:53.837Z,13.93
2022-10-03T23:08:40.237Z,13.89
2022-10-03T23:11:27.240Z,13.86
2022-10-03T23:14:01.353Z,13.87
2022-10-03T23:17:11.169Z,13.87
2022-10-03T23:20:14.606Z,13.84
2022-10-03T23:22:48.101Z,13.88
2022-10-03T23:25:34.251Z,13.91
2022-10-03T23:28:53.718Z,13.95
2022-10-03T23:31:49.332Z,13.77
2022-10-03T23:34:37.795Z,13.70
2022-10-03T23:37:15.077Z,13.68
2022-10-03T23:39:54.852Z,13.63
2022-10-03T23:42:33.469Z,13.56
2022-10-03T23:45:07.479Z,13.49
2022-10-03T23:47:51.257Z,13.43
2022-10-03T23:50:55.930Z,13.39
2022-10-03T23:53:29.988Z,13.40
2022-10-03T23:56:02.151Z,13.42
2022-10-03T23:58:36.783Z,13.54
